sensor_id;sensor_type;location;lat;lon;timestamp;P1;durP1;ratioP1;P2;durP2;ratioP2
52072;SDS011;38074;51.232;6.826;2022-09-09T00:01:37;0.77;;;0.30;;
52072;SDS011;38074;51.232;6.826;2022-09-09T00:09:16;1.48;;;0.22;;
52072;SDS011;38074;51.232;6.826;2022-09-09T00:16:34;1.73;;;0.30;;
52072;SDS011;38074;51.232;6.826;2022-09-09T00:23:54;1.08;;;0.20;;
52072;SDS011;38074;51.232;6.826;2022-09-09T00:31:13;1.35;;;0.20;;
52072;SDS011;38074;51.232;6.826;2022-09-09T00:38:35;1.45;;;0.13;;
52072;SDS011;38074;51.232;6.826;2022-09-09T01:01:16;0.40;;;0.10;;
52072;SDS011;38074;51.232;6.826;2022-09-09T01:08:39;0.57;;;0.10;;
52072;SDS011;38074;51.232;6.826;2022-09-09T01:15:58;0.35;;;0.10;;
52072;SDS011;38074;51.232;6.826;2022-09-09T01:30:49;0.30;;;0.10;;
52072;SDS011;38074;51.232;6.826;2022-09-09T01:38:05;0.63;;;0.20;;
52072;SDS011;38074;51.232;6.826;2022-09-09T01:45:21;1.00;;;0.20;;
52072;SDS011;38074;51.232;6.826;2022-09-09T01:52:37;0.43;;;0.17;;
52072;SDS011;38074;51.232;6.826;2022-09-09T02:00:08;1.03;;;0.30;;
52072;SDS011;38074;51.232;6.826;2022-09-09T02:07:43;2.85;;;0.50;;
52072;SDS011;38074;51.232;6.826;2022-09-09T02:15:05;1.00;;;0.32;;
52072;SDS011;38074;51.232;6.826;2022-09-09T02:22:29;1.10;;;0.30;;
52072;SDS011;38074;51.232;6.826;2022-09-09T02:29:49;1.00;;;0.40;;
52072;SDS011;38074;51.232;6.826;2022-09-09T02:44:23;1.17;;;0.40;;
52072;SDS011;38074;51.232;6.826;2022-09-09T02:59:17;1.95;;;0.30;;
52072;SDS011;38074;51.232;6.826;2022-09-09T03:06:33;2.03;;;0.60;;
52072;SDS011;38074;51.232;6.826;2022-09-09T03:13:48;1.83;;;0.37;;
52072;SDS011;38074;51.232;6.826;2022-09-09T03:21:04;1.60;;;0.50;;
52072;SDS011;38074;51.232;6.826;2022-09-09T03:28:20;1.27;;;0.30;;
52072;SDS011;38074;51.232;6.826;2022-09-09T03:35:35;0.83;;;0.30;;
52072;SDS011;38074;51.232;6.826;2022-09-09T03:42:51;2.17;;;0.40;;
52072;SDS011;38074;51.232;6.826;2022-09-09T03:50:07;0.47;;;0.20;;
52072;SDS011;38074;51.232;6.826;2022-09-09T03:57:25;1.38;;;0.50;;
52072;SDS011;38074;51.232;6.826;2022-09-09T04:04:41;0.90;;;0.30;;
52072;SDS011;38074;51.232;6.826;2022-09-09T04:11:56;0.73;;;0.30;;
52072;SDS011;38074;51.232;6.826;2022-09-09T04:19:12;1.63;;;0.23;;
52072;SDS011;38074;51.232;6.826;2022-09-09T04:33:44;2.60;;;0.35;;
52072;SDS011;38074;51.232;6.826;2022-09-09T04:41:01;1.52;;;0.40;;
52072;SDS011;38074;51.232;6.826;2022-09-09T04:48:16;1.50;;;0.30;;
52072;SDS011;38074;51.232;6.826;2022-09-09T04:55:33;1.83;;;0.40;;
52072;SDS011;38074;51.232;6.826;2022-09-09T05:02:49;0.90;;;0.32;;
52072;SDS011;38074;51.232;6.826;2022-09-09T05:10:06;1.53;;;0.40;;
52072;SDS011;38074;51.232;6.826;2022-09-09T05:17:21;6.43;;;0.60;;
52072;SDS011;38074;51.232;6.826;2022-09-09T05:24:37;6.13;;;1.13;;
52072;SDS011;38074;51.232;6.826;2022-09-09T05:31:53;13.87;;;3.70;;
52072;SDS011;38074;51.232;6.826;2022-09-09T05:39:09;7.30;;;1.47;;
52072;SDS011;38074;51.232;6.826;2022-09-09T05:46:26;10.18;;;1.50;;
52072;SDS011;38074;51.232;6.826;2022-09-09T05:53:43;6.80;;;1.23;;
52072;SDS011;38074;51.232;6.826;2022-09-09T06:01:07;8.77;;;1.35;;
52072;SDS011;38074;51.232;6.826;2022-09-09T06:08:24;4.85;;;0.85;;
52072;SDS011;38074;51.232;6.826;2022-09-09T06:23:04;4.70;;;0.95;;
52072;SDS011;38074;51.232;6.826;2022-09-09T06:30:20;4.25;;;0.70;;
52072;SDS011;38074;51.232;6.826;2022-09-09T06:37:35;3.77;;;0.60;;
52072;SDS011;38074;51.232;6.826;2022-09-09T06:44:51;4.18;;;0.85;;
52072;SDS011;38074;51.232;6.826;2022-09-09T06:52:07;4.33;;;0.70;;
52072;SDS011;38074;51.232;6.826;2022-09-09T06:59:24;3.85;;;0.55;;
52072;SDS011;38074;51.232;6.826;2022-09-09T07:06:40;2.43;;;0.73;;
52072;SDS011;38074;51.232;6.826;2022-09-09T07:14:01;5.65;;;0.85;;
52072;SDS011;38074;51.232;6.826;2022-09-09T07:21:16;5.33;;;0.97;;
52072;SDS011;38074;51.232;6.826;2022-09-09T07:28:32;6.70;;;0.80;;
52072;SDS011;38074;51.232;6.826;2022-09-09T07:35:48;3.28;;;0.40;;
52072;SDS011;38074;51.232;6.826;2022-09-09T07:43:04;5.20;;;0.50;;
52072;SDS011;38074;51.232;6.826;2022-09-09T07:50:19;3.33;;;0.57;;
52072;SDS011;38074;51.232;6.826;2022-09-09T07:57:35;1.83;;;0.45;;
52072;SDS011;38074;51.232;6.826;2022-09-09T08:04:51;6.15;;;0.80;;
52072;SDS011;38074;51.232;6.826;2022-09-09T08:12:07;7.22;;;0.77;;
52072;SDS011;38074;51.232;6.826;2022-09-09T08:19:23;3.95;;;0.63;;
52072;SDS011;38074;51.232;6.826;2022-09-09T08:26:40;3.40;;;0.80;;
52072;SDS011;38074;51.232;6.826;2022-09-09T08:33:57;5.28;;;0.75;;
52072;SDS011;38074;51.232;6.826;2022-09-09T08:48:48;3.55;;;0.80;;
52072;SDS011;38074;51.232;6.826;2022-09-09T08:56:18;4.57;;;0.65;;
52072;SDS011;38074;51.232;6.826;2022-09-09T09:11:02;5.35;;;0.90;;
52072;SDS011;38074;51.232;6.826;2022-09-09T09:18:18;6.93;;;0.93;;
52072;SDS011;38074;51.232;6.826;2022-09-09T09:25:37;3.93;;;0.73;;
52072;SDS011;38074;51.232;6.826;2022-09-09T09:32:58;3.15;;;0.80;;
52072;SDS011;38074;51.232;6.826;2022-09-09T09:40:18;3.10;;;0.80;;
52072;SDS011;38074;51.232;6.826;2022-09-09T09:47:35;4.47;;;0.82;;
52072;SDS011;38074;51.232;6.826;2022-09-09T09:54:50;3.07;;;0.50;;
52072;SDS011;38074;51.232;6.826;2022-09-09T10:09:40;2.03;;;0.43;;
52072;SDS011;38074;51.232;6.826;2022-09-09T10:39:38;1.20;;;0.30;;
52072;SDS011;38074;51.232;6.826;2022-09-09T10:54:24;2.03;;;0.65;;
52072;SDS011;38074;51.232;6.826;2022-09-09T11:01:47;6.50;;;0.65;;
52072;SDS011;38074;51.232;6.826;2022-09-09T11:09:08;2.75;;;0.68;;
52072;SDS011;38074;51.232;6.826;2022-09-09T11:24:08;2.80;;;0.65;;
52072;SDS011;38074;51.232;6.826;2022-09-09T11:46:33;1.58;;;0.30;;
52072;SDS011;38074;51.232;6.826;2022-09-09T11:53:58;5.00;;;0.50;;
52072;SDS011;38074;51.232;6.826;2022-09-09T12:08:51;0.70;;;0.28;;
52072;SDS011;38074;51.232;6.826;2022-09-09T12:16:27;1.95;;;0.60;;
52072;SDS011;38074;51.232;6.826;2022-09-09T12:38:39;2.92;;;0.50;;
52072;SDS011;38074;51.232;6.826;2022-09-09T12:46:00;2.40;;;0.38;;
52072;SDS011;38074;51.232;6.826;2022-09-09T12:53:22;2.45;;;0.30;;
52072;SDS011;38074;51.232;6.826;2022-09-09T13:00:52;2.58;;;0.57;;
52072;SDS011;38074;51.232;6.826;2022-09-09T13:08:11;2.78;;;0.50;;
52072;SDS011;38074;51.232;6.826;2022-09-09T13:15:28;2.25;;;0.40;;
52072;SDS011;38074;51.232;6.826;2022-09-09T13:22:44;2.00;;;0.35;;
52072;SDS011;38074;51.232;6.826;2022-09-09T13:30:18;2.67;;;0.50;;
52072;SDS011;38074;51.232;6.826;2022-09-09T13:37:40;1.50;;;0.40;;
52072;SDS011;38074;51.232;6.826;2022-09-09T13:44:56;4.60;;;0.70;;
52072;SDS011;38074;51.232;6.826;2022-09-09T13:52:15;2.22;;;0.47;;
52072;SDS011;38074;51.232;6.826;2022-09-09T13:59:33;1.23;;;0.30;;
52072;SDS011;38074;51.232;6.826;2022-09-09T14:06:49;3.03;;;0.30;;
52072;SDS011;38074;51.232;6.826;2022-09-09T14:14:05;1.63;;;0.40;;
52072;SDS011;38074;51.232;6.826;2022-09-09T14:21:21;1.50;;;0.30;;
52072;SDS011;38074;51.232;6.826;2022-09-09T14:28:36;1.30;;;0.30;;
52072;SDS011;38074;51.232;6.826;2022-09-09T14:35:56;3.22;;;0.52;;
52072;SDS011;38074;51.232;6.826;2022-09-09T14:43:15;0.70;;;0.10;;
52072;SDS011;38074;51.232;6.826;2022-09-09T14:50:31;0.87;;;0.27;;
52072;SDS011;38074;51.232;6.826;2022-09-09T14:57:46;0.63;;;0.20;;
52072;SDS011;38074;51.232;6.826;2022-09-09T15:05:02;1.10;;;0.10;;
52072;SDS011;38074;51.232;6.826;2022-09-09T15:12:19;2.30;;;0.20;;
52072;SDS011;38074;51.232;6.826;2022-09-09T15:19:35;2.57;;;0.23;;
52072;SDS011;38074;51.232;6.826;2022-09-09T15:26:52;2.10;;;0.30;;
52072;SDS011;38074;51.232;6.826;2022-09-09T15:41:24;2.42;;;0.30;;
52072;SDS011;38074;51.232;6.826;2022-09-09T15:48:41;1.70;;;0.20;;
52072;SDS011;38074;51.232;6.826;2022-09-09T15:55:56;1.00;;;0.20;;
52072;SDS011;38074;51.232;6.826;2022-09-09T16:03:12;21.48;;;3.20;;
52072;SDS011;38074;51.232;6.826;2022-09-09T16:10:27;13.47;;;2.43;;
52072;SDS011;38074;51.232;6.826;2022-09-09T16:17:43;8.13;;;2.20;;
52072;SDS011;38074;51.232;6.826;2022-09-09T16:24:59;8.53;;;1.80;;
52072;SDS011;38074;51.232;6.826;2022-09-09T16:32:15;6.67;;;1.47;;
52072;SDS011;38074;51.232;6.826;2022-09-09T16:39:31;9.43;;;1.33;;
52072;SDS011;38074;51.232;6.826;2022-09-09T16:46:47;8.93;;;1.20;;
52072;SDS011;38074;51.232;6.826;2022-09-09T16:54:04;7.88;;;1.00;;
52072;SDS011;38074;51.232;6.826;2022-09-09T17:01:22;5.18;;;1.02;;
52072;SDS011;38074;51.232;6.826;2022-09-09T17:08:39;4.78;;;0.90;;
52072;SDS011;38074;51.232;6.826;2022-09-09T17:15:56;4.72;;;0.88;;
52072;SDS011;38074;51.232;6.826;2022-09-09T17:23:11;5.47;;;1.00;;
52072;SDS011;38074;51.232;6.826;2022-09-09T17:30:33;4.90;;;0.85;;
52072;SDS011;38074;51.232;6.826;2022-09-09T17:37:49;3.72;;;0.68;;
52072;SDS011;38074;51.232;6.826;2022-09-09T17:45:06;10.73;;;1.20;;
52072;SDS011;38074;51.232;6.826;2022-09-09T17:52:21;5.07;;;0.60;;
52072;SDS011;38074;51.232;6.826;2022-09-09T17:59:37;4.40;;;0.73;;
52072;SDS011;38074;51.232;6.826;2022-09-09T18:06:53;5.23;;;0.77;;
52072;SDS011;38074;51.232;6.826;2022-09-09T18:14:10;2.67;;;0.63;;
52072;SDS011;38074;51.232;6.826;2022-09-09T18:21:28;4.82;;;0.60;;
52072;SDS011;38074;51.232;6.826;2022-09-09T18:28:47;3.47;;;0.60;;
52072;SDS011;38074;51.232;6.826;2022-09-09T18:36:08;3.15;;;0.47;;
52072;SDS011;38074;51.232;6.826;2022-09-09T18:43:25;2.75;;;0.85;;
52072;SDS011;38074;51.232;6.826;2022-09-09T18:50:41;5.73;;;1.10;;
52072;SDS011;38074;51.232;6.826;2022-09-09T18:57:56;4.00;;;0.70;;
52072;SDS011;38074;51.232;6.826;2022-09-09T19:05:12;3.27;;;0.57;;
52072;SDS011;38074;51.232;6.826;2022-09-09T19:12:28;2.00;;;0.57;;
52072;SDS011;38074;51.232;6.826;2022-09-09T19:19:44;3.77;;;0.63;;
52072;SDS011;38074;51.232;6.826;2022-09-09T19:27:00;6.87;;;0.80;;
52072;SDS011;38074;51.232;6.826;2022-09-09T19:34:18;7.25;;;0.88;;
52072;SDS011;38074;51.232;6.826;2022-09-09T19:41:34;2.70;;;0.60;;
52072;SDS011;38074;51.232;6.826;2022-09-09T19:48:50;2.53;;;0.38;;
52072;SDS011;38074;51.232;6.826;2022-09-09T19:56:06;2.33;;;0.40;;
52072;SDS011;38074;51.232;6.826;2022-09-09T20:03:25;3.47;;;0.50;;
52072;SDS011;38074;51.232;6.826;2022-09-09T20:10:48;2.70;;;0.50;;
52072;SDS011;38074;51.232;6.826;2022-09-09T20:18:05;2.17;;;0.60;;
52072;SDS011;38074;51.232;6.826;2022-09-09T20:25:20;5.77;;;0.97;;
52072;SDS011;38074;51.232;6.826;2022-09-09T20:32:38;6.78;;;0.50;;
52072;SDS011;38074;51.232;6.826;2022-09-09T20:39:54;1.97;;;0.40;;
52072;SDS011;38074;51.232;6.826;2022-09-09T20:47:10;2.00;;;0.23;;
52072;SDS011;38074;51.232;6.826;2022-09-09T20:54:27;2.80;;;0.53;;
52072;SDS011;38074;51.232;6.826;2022-09-09T21:01:46;1.88;;;0.40;;
52072;SDS011;38074;51.232;6.826;2022-09-09T21:09:02;2.17;;;0.30;;
52072;SDS011;38074;51.232;6.826;2022-09-09T21:16:18;3.20;;;1.13;;
52072;SDS011;38074;51.232;6.826;2022-09-09T21:23:35;2.08;;;0.35;;
52072;SDS011;38074;51.232;6.826;2022-09-09T21:30:51;0.67;;;0.20;;
52072;SDS011;38074;51.232;6.826;2022-09-09T21:38:12;1.08;;;0.20;;
52072;SDS011;38074;51.232;6.826;2022-09-09T21:45:33;0.82;;;0.30;;
52072;SDS011;38074;51.232;6.826;2022-09-09T21:52:49;2.85;;;0.43;;
52072;SDS011;38074;51.232;6.826;2022-09-09T22:00:06;1.60;;;0.37;;
52072;SDS011;38074;51.232;6.826;2022-09-09T22:07:31;1.50;;;0.30;;
52072;SDS011;38074;51.232;6.826;2022-09-09T22:14:47;1.43;;;0.30;;
52072;SDS011;38074;51.232;6.826;2022-09-09T22:22:02;1.60;;;0.27;;
52072;SDS011;38074;51.232;6.826;2022-09-09T22:29:18;1.37;;;0.30;;
52072;SDS011;38074;51.232;6.826;2022-09-09T22:36:33;0.77;;;0.30;;
52072;SDS011;38074;51.232;6.826;2022-09-09T22:43:49;2.90;;;0.70;;
52072;SDS011;38074;51.232;6.826;2022-09-09T22:51:05;1.60;;;0.37;;
52072;SDS011;38074;51.232;6.826;2022-09-09T22:58:25;1.23;;;0.45;;
52072;SDS011;38074;51.232;6.826;2022-09-09T23:05:51;1.88;;;0.40;;
52072;SDS011;38074;51.232;6.826;2022-09-09T23:13:11;2.10;;;0.60;;
52072;SDS011;38074;51.232;6.826;2022-09-09T23:20:26;3.13;;;0.47;;
52072;SDS011;38074;51.232;6.826;2022-09-09T23:27:42;3.77;;;0.30;;
52072;SDS011;38074;51.232;6.826;2022-09-09T23:34:57;3.17;;;0.40;;
52072;SDS011;38074;51.232;6.826;2022-09-09T23:42:13;0.93;;;0.20;;
52072;SDS011;38074;51.232;6.826;2022-09-09T23:49:29;1.20;;;0.30;;
52072;SDS011;38074;51.232;6.826;2022-09-09T23:56:44;1.10;;;0.20;;
